sensor_id;sensor_type;location;lat;lon;timestamp;P1;durP1;ratioP1;P2;durP2;ratioP2
82938;SDS011;72714;52.744;4.900;2024-02-14T00:00:08;19.60;;;16.98;;
82938;SDS011;72714;52.744;4.900;2024-02-14T00:02:39;19.13;;;17.10;;
82938;SDS011;72714;52.744;4.900;2024-02-14T00:05:06;18.73;;;16.77;;
82938;SDS011;72714;52.744;4.900;2024-02-14T00:07:32;17.65;;;15.85;;
82938;SDS011;72714;52.744;4.900;2024-02-14T00:09:57;18.85;;;16.95;;
82938;SDS011;72714;52.744;4.900;2024-02-14T00:12:23;17.67;;;15.87;;
82938;SDS011;72714;52.744;4.900;2024-02-14T00:14:49;18.63;;;16.67;;
82938;SDS011;72714;52.744;4.900;2024-02-14T00:17:15;17.95;;;16.13;;
82938;SDS011;72714;52.744;4.900;2024-02-14T00:19:41;19.42;;;17.35;;
82938;SDS011;72714;52.744;4.900;2024-02-14T00:22:06;17.00;;;15.27;;
82938;SDS011;72714;52.744;4.900;2024-02-14T00:24:32;16.97;;;15.17;;
82938;SDS011;72714;52.744;4.900;2024-02-14T00:26:57;16.75;;;15.05;;
82938;SDS011;72714;52.744;4.900;2024-02-14T00:29:23;18.63;;;16.27;;
82938;SDS011;72714;52.744;4.900;2024-02-14T00:31:49;15.75;;;14.05;;
82938;SDS011;72714;52.744;4.900;2024-02-14T00:34:15;14.47;;;12.90;;
82938;SDS011;72714;52.744;4.900;2024-02-14T00:36:41;14.40;;;12.70;;
82938;SDS011;72714;52.744;4.900;2024-02-14T00:39:06;12.80;;;11.15;;
82938;SDS011;72714;52.744;4.900;2024-02-14T00:41:34;13.13;;;11.60;;
82938;SDS011;72714;52.744;4.900;2024-02-14T00:44:00;12.30;;;11.00;;
82938;SDS011;72714;52.744;4.900;2024-02-14T00:46:26;11.50;;;9.93;;
82938;SDS011;72714;52.744;4.900;2024-02-14T00:48:52;10.40;;;8.45;;
82938;SDS011;72714;52.744;4.900;2024-02-14T00:51:19;10.70;;;8.48;;
82938;SDS011;72714;52.744;4.900;2024-02-14T00:53:46;10.18;;;7.63;;
82938;SDS011;72714;52.744;4.900;2024-02-14T00:56:11;8.93;;;7.13;;
82938;SDS011;72714;52.744;4.900;2024-02-14T00:58:37;8.60;;;6.50;;
82938;SDS011;72714;52.744;4.900;2024-02-14T01:01:02;8.63;;;6.10;;
82938;SDS011;72714;52.744;4.900;2024-02-14T01:03:28;9.23;;;6.60;;
82938;SDS011;72714;52.744;4.900;2024-02-14T01:05:53;9.83;;;6.60;;
82938;SDS011;72714;52.744;4.900;2024-02-14T01:08:20;9.52;;;6.38;;
82938;SDS011;72714;52.744;4.900;2024-02-14T01:10:45;9.30;;;6.68;;
82938;SDS011;72714;52.744;4.900;2024-02-14T01:13:12;12.10;;;7.03;;
82938;SDS011;72714;52.744;4.900;2024-02-14T01:15:37;10.25;;;6.63;;
82938;SDS011;72714;52.744;4.900;2024-02-14T01:18:03;9.88;;;6.60;;
82938;SDS011;72714;52.744;4.900;2024-02-14T01:20:28;9.45;;;6.53;;
82938;SDS011;72714;52.744;4.900;2024-02-14T01:22:54;11.10;;;6.80;;
82938;SDS011;72714;52.744;4.900;2024-02-14T01:25:20;10.57;;;6.77;;
82938;SDS011;72714;52.744;4.900;2024-02-14T01:27:45;9.97;;;6.33;;
82938;SDS011;72714;52.744;4.900;2024-02-14T01:30:11;12.45;;;6.68;;
82938;SDS011;72714;52.744;4.900;2024-02-14T01:32:36;14.20;;;7.13;;
82938;SDS011;72714;52.744;4.900;2024-02-14T01:35:02;13.25;;;6.28;;
82938;SDS011;72714;52.744;4.900;2024-02-14T01:37:29;12.07;;;6.35;;
82938;SDS011;72714;52.744;4.900;2024-02-14T01:39:55;13.63;;;6.40;;
82938;SDS011;72714;52.744;4.900;2024-02-14T01:42:20;13.37;;;6.50;;
82938;SDS011;72714;52.744;4.900;2024-02-14T01:44:46;14.63;;;7.10;;
82938;SDS011;72714;52.744;4.900;2024-02-14T01:47:11;14.85;;;6.95;;
82938;SDS011;72714;52.744;4.900;2024-02-14T01:49:37;13.95;;;7.22;;
82938;SDS011;72714;52.744;4.900;2024-02-14T01:52:03;16.60;;;7.72;;
82938;SDS011;72714;52.744;4.900;2024-02-14T01:54:29;17.23;;;8.67;;
82938;SDS011;72714;52.744;4.900;2024-02-14T01:56:56;18.05;;;8.60;;
82938;SDS011;72714;52.744;4.900;2024-02-14T01:59:21;18.83;;;8.35;;
82938;SDS011;72714;52.744;4.900;2024-02-14T02:01:48;21.40;;;9.25;;
82938;SDS011;72714;52.744;4.900;2024-02-14T02:04:14;23.13;;;10.10;;
82938;SDS011;72714;52.744;4.900;2024-02-14T02:06:39;24.53;;;10.53;;
82938;SDS011;72714;52.744;4.900;2024-02-14T02:09:08;21.00;;;9.63;;
82938;SDS011;72714;52.744;4.900;2024-02-14T02:11:45;26.27;;;10.45;;
82938;SDS011;72714;52.744;4.900;2024-02-14T02:14:13;28.65;;;11.35;;
82938;SDS011;72714;52.744;4.900;2024-02-14T02:16:39;26.87;;;10.33;;
82938;SDS011;72714;52.744;4.900;2024-02-14T02:19:04;26.83;;;11.10;;
82938;SDS011;72714;52.744;4.900;2024-02-14T02:21:33;26.53;;;10.53;;
82938;SDS011;72714;52.744;4.900;2024-02-14T02:24:00;25.38;;;10.32;;
82938;SDS011;72714;52.744;4.900;2024-02-14T02:26:26;24.42;;;9.80;;
82938;SDS011;72714;52.744;4.900;2024-02-14T02:28:52;23.00;;;8.65;;
82938;SDS011;72714;52.744;4.900;2024-02-14T02:31:17;22.47;;;8.40;;
82938;SDS011;72714;52.744;4.900;2024-02-14T02:33:43;20.52;;;7.78;;
82938;SDS011;72714;52.744;4.900;2024-02-14T02:36:08;16.50;;;7.57;;
82938;SDS011;72714;52.744;4.900;2024-02-14T02:38:35;20.27;;;8.03;;
82938;SDS011;72714;52.744;4.900;2024-02-14T02:41:02;21.10;;;7.67;;
82938;SDS011;72714;52.744;4.900;2024-02-14T02:43:29;22.05;;;8.43;;
82938;SDS011;72714;52.744;4.900;2024-02-14T02:45:55;20.27;;;7.37;;
82938;SDS011;72714;52.744;4.900;2024-02-14T02:48:22;20.60;;;7.65;;
82938;SDS011;72714;52.744;4.900;2024-02-14T02:50:48;21.98;;;7.40;;
82938;SDS011;72714;52.744;4.900;2024-02-14T02:53:15;17.70;;;7.32;;
82938;SDS011;72714;52.744;4.900;2024-02-14T02:55:43;23.02;;;7.43;;
82938;SDS011;72714;52.744;4.900;2024-02-14T02:58:09;18.43;;;6.60;;
82938;SDS011;72714;52.744;4.900;2024-02-14T03:00:34;18.57;;;5.90;;
82938;SDS011;72714;52.744;4.900;2024-02-14T03:03:00;14.53;;;5.23;;
82938;SDS011;72714;52.744;4.900;2024-02-14T03:05:27;18.23;;;5.68;;
82938;SDS011;72714;52.744;4.900;2024-02-14T03:07:54;19.15;;;5.93;;
82938;SDS011;72714;52.744;4.900;2024-02-14T03:10:22;18.25;;;5.18;;
82938;SDS011;72714;52.744;4.900;2024-02-14T03:12:48;19.07;;;5.33;;
82938;SDS011;72714;52.744;4.900;2024-02-14T03:15:14;18.42;;;4.82;;
82938;SDS011;72714;52.744;4.900;2024-02-14T03:17:39;22.98;;;5.35;;
82938;SDS011;72714;52.744;4.900;2024-02-14T03:20:05;21.35;;;5.10;;
82938;SDS011;72714;52.744;4.900;2024-02-14T03:22:49;25.00;;;5.55;;
82938;SDS011;72714;52.744;4.900;2024-02-14T03:27:43;31.30;;;6.55;;
82938;SDS011;72714;52.744;4.900;2024-02-14T03:30:12;30.63;;;6.28;;
82938;SDS011;72714;52.744;4.900;2024-02-14T03:32:38;41.37;;;7.53;;
82938;SDS011;72714;52.744;4.900;2024-02-14T03:35:04;43.37;;;8.00;;
82938;SDS011;72714;52.744;4.900;2024-02-14T03:37:29;45.13;;;8.27;;
82938;SDS011;72714;52.744;4.900;2024-02-14T03:39:55;36.63;;;7.10;;
82938;SDS011;72714;52.744;4.900;2024-02-14T03:42:21;41.20;;;7.30;;
82938;SDS011;72714;52.744;4.900;2024-02-14T03:44:46;46.37;;;8.43;;
82938;SDS011;72714;52.744;4.900;2024-02-14T03:47:12;47.33;;;8.18;;
82938;SDS011;72714;52.744;4.900;2024-02-14T03:49:38;47.33;;;7.82;;
82938;SDS011;72714;52.744;4.900;2024-02-14T03:52:06;50.15;;;7.90;;
82938;SDS011;72714;52.744;4.900;2024-02-14T03:54:35;43.63;;;7.00;;
82938;SDS011;72714;52.744;4.900;2024-02-14T03:57:02;50.67;;;7.80;;
82938;SDS011;72714;52.744;4.900;2024-02-14T03:59:27;48.57;;;7.87;;
82938;SDS011;72714;52.744;4.900;2024-02-14T04:01:53;55.40;;;8.17;;
82938;SDS011;72714;52.744;4.900;2024-02-14T04:04:19;48.28;;;7.85;;
82938;SDS011;72714;52.744;4.900;2024-02-14T04:06:44;49.13;;;7.93;;
82938;SDS011;72714;52.744;4.900;2024-02-14T04:09:11;48.53;;;8.00;;
82938;SDS011;72714;52.744;4.900;2024-02-14T04:11:36;47.23;;;8.03;;
82938;SDS011;72714;52.744;4.900;2024-02-14T04:14:02;49.87;;;7.57;;
82938;SDS011;72714;52.744;4.900;2024-02-14T04:16:27;48.85;;;8.15;;
82938;SDS011;72714;52.744;4.900;2024-02-14T04:18:53;46.90;;;7.67;;
82938;SDS011;72714;52.744;4.900;2024-02-14T04:21:20;42.30;;;7.50;;
82938;SDS011;72714;52.744;4.900;2024-02-14T04:23:45;49.73;;;8.00;;
82938;SDS011;72714;52.744;4.900;2024-02-14T04:26:17;52.07;;;7.97;;
82938;SDS011;72714;52.744;4.900;2024-02-14T04:28:44;45.45;;;8.20;;
82938;SDS011;72714;52.744;4.900;2024-02-14T04:31:10;47.57;;;7.90;;
82938;SDS011;72714;52.744;4.900;2024-02-14T04:33:35;51.07;;;7.70;;
82938;SDS011;72714;52.744;4.900;2024-02-14T04:36:01;57.42;;;9.07;;
82938;SDS011;72714;52.744;4.900;2024-02-14T04:38:26;53.53;;;8.43;;
82938;SDS011;72714;52.744;4.900;2024-02-14T04:40:53;50.53;;;7.90;;
82938;SDS011;72714;52.744;4.900;2024-02-14T04:43:20;53.05;;;8.45;;
82938;SDS011;72714;52.744;4.900;2024-02-14T04:45:46;50.95;;;7.65;;
82938;SDS011;72714;52.744;4.900;2024-02-14T04:48:12;51.00;;;7.80;;
82938;SDS011;72714;52.744;4.900;2024-02-14T04:50:37;54.00;;;8.23;;
82938;SDS011;72714;52.744;4.900;2024-02-14T04:53:03;52.88;;;7.55;;
82938;SDS011;72714;52.744;4.900;2024-02-14T04:55:28;46.20;;;7.40;;
82938;SDS011;72714;52.744;4.900;2024-02-14T04:57:54;42.40;;;7.53;;
82938;SDS011;72714;52.744;4.900;2024-02-14T05:00:19;52.97;;;7.43;;
82938;SDS011;72714;52.744;4.900;2024-02-14T05:02:45;40.70;;;7.20;;
82938;SDS011;72714;52.744;4.900;2024-02-14T05:05:10;55.53;;;8.73;;
82938;SDS011;72714;52.744;4.900;2024-02-14T05:07:36;54.07;;;8.10;;
82938;SDS011;72714;52.744;4.900;2024-02-14T05:10:01;49.95;;;8.20;;
82938;SDS011;72714;52.744;4.900;2024-02-14T05:12:28;44.95;;;7.00;;
82938;SDS011;72714;52.744;4.900;2024-02-14T05:14:53;47.63;;;8.00;;
82938;SDS011;72714;52.744;4.900;2024-02-14T05:17:19;45.60;;;7.72;;
82938;SDS011;72714;52.744;4.900;2024-02-14T05:19:44;47.33;;;7.50;;
82938;SDS011;72714;52.744;4.900;2024-02-14T05:22:10;45.13;;;7.17;;
82938;SDS011;72714;52.744;4.900;2024-02-14T05:24:35;50.72;;;8.02;;
82938;SDS011;72714;52.744;4.900;2024-02-14T05:27:03;49.30;;;8.05;;
82938;SDS011;72714;52.744;4.900;2024-02-14T05:29:30;47.10;;;7.55;;
82938;SDS011;72714;52.744;4.900;2024-02-14T05:31:55;50.87;;;8.17;;
82938;SDS011;72714;52.744;4.900;2024-02-14T05:34:21;50.50;;;7.40;;
82938;SDS011;72714;52.744;4.900;2024-02-14T05:36:46;48.78;;;8.73;;
82938;SDS011;72714;52.744;4.900;2024-02-14T05:39:12;43.38;;;7.43;;
82938;SDS011;72714;52.744;4.900;2024-02-14T05:41:39;55.47;;;8.70;;
82938;SDS011;72714;52.744;4.900;2024-02-14T05:44:05;53.72;;;8.43;;
82938;SDS011;72714;52.744;4.900;2024-02-14T05:46:31;46.03;;;8.30;;
82938;SDS011;72714;52.744;4.900;2024-02-14T05:48:56;52.50;;;8.37;;
82938;SDS011;72714;52.744;4.900;2024-02-14T05:51:22;55.38;;;8.60;;
82938;SDS011;72714;52.744;4.900;2024-02-14T05:53:48;46.30;;;7.88;;
82938;SDS011;72714;52.744;4.900;2024-02-14T05:56:14;44.83;;;8.00;;
82938;SDS011;72714;52.744;4.900;2024-02-14T05:58:39;49.00;;;8.10;;
82938;SDS011;72714;52.744;4.900;2024-02-14T06:01:05;45.33;;;7.93;;
82938;SDS011;72714;52.744;4.900;2024-02-14T06:03:31;50.80;;;8.70;;
82938;SDS011;72714;52.744;4.900;2024-02-14T06:05:57;45.90;;;8.10;;
82938;SDS011;72714;52.744;4.900;2024-02-14T06:08:22;51.63;;;8.32;;
82938;SDS011;72714;52.744;4.900;2024-02-14T06:10:49;44.28;;;7.53;;
82938;SDS011;72714;52.744;4.900;2024-02-14T06:13:14;50.40;;;8.37;;
82938;SDS011;72714;52.744;4.900;2024-02-14T06:15:40;47.47;;;8.60;;
82938;SDS011;72714;52.744;4.900;2024-02-14T06:18:06;45.40;;;7.67;;
82938;SDS011;72714;52.744;4.900;2024-02-14T06:20:31;46.60;;;7.38;;
82938;SDS011;72714;52.744;4.900;2024-02-14T06:22:57;41.03;;;7.70;;
82938;SDS011;72714;52.744;4.900;2024-02-14T06:25:22;43.50;;;8.27;;
82938;SDS011;72714;52.744;4.900;2024-02-14T06:27:48;44.23;;;8.20;;
82938;SDS011;72714;52.744;4.900;2024-02-14T06:30:13;52.80;;;8.60;;
82938;SDS011;72714;52.744;4.900;2024-02-14T06:32:39;48.72;;;8.38;;
82938;SDS011;72714;52.744;4.900;2024-02-14T06:35:05;48.92;;;9.82;;
82938;SDS011;72714;52.744;4.900;2024-02-14T06:37:30;46.33;;;9.17;;
82938;SDS011;72714;52.744;4.900;2024-02-14T06:39:56;45.57;;;9.50;;
82938;SDS011;72714;52.744;4.900;2024-02-14T06:42:21;42.17;;;9.57;;
82938;SDS011;72714;52.744;4.900;2024-02-14T06:44:47;47.88;;;10.20;;
82938;SDS011;72714;52.744;4.900;2024-02-14T06:47:14;48.42;;;10.50;;
82938;SDS011;72714;52.744;4.900;2024-02-14T06:49:40;42.03;;;9.93;;
82938;SDS011;72714;52.744;4.900;2024-02-14T06:52:05;40.97;;;10.23;;
82938;SDS011;72714;52.744;4.900;2024-02-14T06:54:31;43.00;;;10.73;;
82938;SDS011;72714;52.744;4.900;2024-02-14T06:56:56;45.77;;;10.43;;
82938;SDS011;72714;52.744;4.900;2024-02-14T06:59:22;45.05;;;9.73;;
82938;SDS011;72714;52.744;4.900;2024-02-14T07:01:48;49.30;;;10.83;;
82938;SDS011;72714;52.744;4.900;2024-02-14T07:04:13;44.40;;;10.15;;
82938;SDS011;72714;52.744;4.900;2024-02-14T07:06:39;50.13;;;11.60;;
82938;SDS011;72714;52.744;4.900;2024-02-14T07:09:04;42.70;;;10.13;;
82938;SDS011;72714;52.744;4.900;2024-02-14T07:11:30;44.80;;;9.50;;
82938;SDS011;72714;52.744;4.900;2024-02-14T07:13:55;38.40;;;9.98;;
82938;SDS011;72714;52.744;4.900;2024-02-14T07:16:21;45.08;;;9.68;;
82938;SDS011;72714;52.744;4.900;2024-02-14T07:18:47;46.57;;;9.73;;
82938;SDS011;72714;52.744;4.900;2024-02-14T07:21:12;44.83;;;9.57;;
82938;SDS011;72714;52.744;4.900;2024-02-14T07:23:37;44.05;;;9.65;;
82938;SDS011;72714;52.744;4.900;2024-02-14T07:26:03;43.63;;;8.87;;
82938;SDS011;72714;52.744;4.900;2024-02-14T07:28:29;35.60;;;8.10;;
82938;SDS011;72714;52.744;4.900;2024-02-14T07:30:54;36.23;;;7.97;;
82938;SDS011;72714;52.744;4.900;2024-02-14T07:33:20;30.38;;;6.88;;
82938;SDS011;72714;52.744;4.900;2024-02-14T07:35:45;36.92;;;7.80;;
82938;SDS011;72714;52.744;4.900;2024-02-14T07:38:12;35.70;;;8.13;;
82938;SDS011;72714;52.744;4.900;2024-02-14T07:40:38;31.48;;;6.95;;
82938;SDS011;72714;52.744;4.900;2024-02-14T07:43:04;26.95;;;7.43;;
82938;SDS011;72714;52.744;4.900;2024-02-14T07:45:31;31.17;;;8.02;;
82938;SDS011;72714;52.744;4.900;2024-02-14T07:47:56;25.97;;;7.07;;
82938;SDS011;72714;52.744;4.900;2024-02-14T07:50:22;29.70;;;7.05;;
82938;SDS011;72714;52.744;4.900;2024-02-14T07:52:47;30.13;;;7.47;;
82938;SDS011;72714;52.744;4.900;2024-02-14T07:55:13;23.67;;;7.33;;
82938;SDS011;72714;52.744;4.900;2024-02-14T07:57:39;24.37;;;6.93;;
82938;SDS011;72714;52.744;4.900;2024-02-14T08:00:07;28.95;;;8.30;;
82938;SDS011;72714;52.744;4.900;2024-02-14T08:02:34;25.35;;;8.18;;
82938;SDS011;72714;52.744;4.900;2024-02-14T08:05:00;26.47;;;8.23;;
82938;SDS011;72714;52.744;4.900;2024-02-14T08:07:25;26.40;;;7.70;;
82938;SDS011;72714;52.744;4.900;2024-02-14T08:09:51;28.47;;;8.00;;
82938;SDS011;72714;52.744;4.900;2024-02-14T08:12:16;34.53;;;8.27;;
82938;SDS011;72714;52.744;4.900;2024-02-14T08:14:42;30.80;;;8.38;;
82938;SDS011;72714;52.744;4.900;2024-02-14T08:17:07;30.77;;;7.73;;
82938;SDS011;72714;52.744;4.900;2024-02-14T08:19:33;30.23;;;7.60;;
82938;SDS011;72714;52.744;4.900;2024-02-14T08:21:58;33.33;;;7.60;;
82938;SDS011;72714;52.744;4.900;2024-02-14T08:24:26;36.13;;;7.88;;
82938;SDS011;72714;52.744;4.900;2024-02-14T08:26:52;30.02;;;6.85;;
82938;SDS011;72714;52.744;4.900;2024-02-14T08:29:17;32.27;;;6.73;;
82938;SDS011;72714;52.744;4.900;2024-02-14T08:31:43;38.20;;;7.25;;
82938;SDS011;72714;52.744;4.900;2024-02-14T08:34:09;32.83;;;6.30;;
82938;SDS011;72714;52.744;4.900;2024-02-14T08:36:34;38.27;;;6.70;;
82938;SDS011;72714;52.744;4.900;2024-02-14T08:39:08;32.85;;;6.10;;
82938;SDS011;72714;52.744;4.900;2024-02-14T08:41:37;30.92;;;6.03;;
82938;SDS011;72714;52.744;4.900;2024-02-14T08:44:03;32.10;;;6.00;;
82938;SDS011;72714;52.744;4.900;2024-02-14T08:46:32;32.00;;;6.88;;
82938;SDS011;72714;52.744;4.900;2024-02-14T08:48:59;31.23;;;6.57;;
82938;SDS011;72714;52.744;4.900;2024-02-14T08:51:27;33.92;;;6.80;;
82938;SDS011;72714;52.744;4.900;2024-02-14T08:53:52;31.00;;;5.57;;
82938;SDS011;72714;52.744;4.900;2024-02-14T08:56:24;35.55;;;5.82;;
82938;SDS011;72714;52.744;4.900;2024-02-14T08:58:50;31.57;;;6.13;;
82938;SDS011;72714;52.744;4.900;2024-02-14T09:01:15;30.77;;;5.90;;
82938;SDS011;72714;52.744;4.900;2024-02-14T09:03:41;29.87;;;5.83;;
82938;SDS011;72714;52.744;4.900;2024-02-14T09:06:12;33.38;;;6.80;;
82938;SDS011;72714;52.744;4.900;2024-02-14T09:08:38;27.48;;;6.25;;
82938;SDS011;72714;52.744;4.900;2024-02-14T09:11:04;26.08;;;6.05;;
82938;SDS011;72714;52.744;4.900;2024-02-14T09:13:29;21.73;;;5.50;;
82938;SDS011;72714;52.744;4.900;2024-02-14T09:15:55;20.43;;;5.33;;
82938;SDS011;72714;52.744;4.900;2024-02-14T09:18:21;21.43;;;5.63;;
82938;SDS011;72714;52.744;4.900;2024-02-14T09:20:46;22.00;;;5.73;;
82938;SDS011;72714;52.744;4.900;2024-02-14T09:23:12;21.20;;;5.93;;
82938;SDS011;72714;52.744;4.900;2024-02-14T09:25:45;26.10;;;6.87;;
82938;SDS011;72714;52.744;4.900;2024-02-14T09:28:12;28.95;;;7.20;;
82938;SDS011;72714;52.744;4.900;2024-02-14T09:30:39;25.10;;;7.30;;
82938;SDS011;72714;52.744;4.900;2024-02-14T09:33:05;25.38;;;7.13;;
82938;SDS011;72714;52.744;4.900;2024-02-14T09:35:30;29.97;;;7.30;;
82938;SDS011;72714;52.744;4.900;2024-02-14T09:37:56;26.13;;;7.17;;
82938;SDS011;72714;52.744;4.900;2024-02-14T09:40:21;33.07;;;7.53;;
82938;SDS011;72714;52.744;4.900;2024-02-14T09:42:53;28.98;;;7.25;;
82938;SDS011;72714;52.744;4.900;2024-02-14T09:45:22;30.63;;;6.90;;
82938;SDS011;72714;52.744;4.900;2024-02-14T09:47:48;28.13;;;6.13;;
82938;SDS011;72714;52.744;4.900;2024-02-14T09:50:13;29.43;;;6.70;;
82938;SDS011;72714;52.744;4.900;2024-02-14T09:52:39;25.77;;;6.50;;
82938;SDS011;72714;52.744;4.900;2024-02-14T09:55:06;26.33;;;5.90;;
82938;SDS011;72714;52.744;4.900;2024-02-14T09:57:32;25.25;;;5.55;;
82938;SDS011;72714;52.744;4.900;2024-02-14T09:59:58;23.15;;;6.13;;
82938;SDS011;72714;52.744;4.900;2024-02-14T10:02:25;26.43;;;5.63;;
82938;SDS011;72714;52.744;4.900;2024-02-14T10:04:50;20.70;;;5.53;;
82938;SDS011;72714;52.744;4.900;2024-02-14T10:07:16;18.92;;;5.38;;
82938;SDS011;72714;52.744;4.900;2024-02-14T10:09:41;18.77;;;5.25;;
82938;SDS011;72714;52.744;4.900;2024-02-14T10:12:08;20.65;;;5.35;;
82938;SDS011;72714;52.744;4.900;2024-02-14T10:14:34;23.73;;;5.72;;
82938;SDS011;72714;52.744;4.900;2024-02-14T10:17:02;18.83;;;4.90;;
82938;SDS011;72714;52.744;4.900;2024-02-14T10:19:28;19.33;;;5.55;;
82938;SDS011;72714;52.744;4.900;2024-02-14T10:22:00;15.40;;;4.70;;
82938;SDS011;72714;52.744;4.900;2024-02-14T10:24:28;17.20;;;5.40;;
82938;SDS011;72714;52.744;4.900;2024-02-14T10:26:56;16.93;;;5.00;;
82938;SDS011;72714;52.744;4.900;2024-02-14T10:29:23;19.43;;;5.50;;
82938;SDS011;72714;52.744;4.900;2024-02-14T10:31:49;17.60;;;5.30;;
82938;SDS011;72714;52.744;4.900;2024-02-14T10:34:15;13.65;;;4.78;;
82938;SDS011;72714;52.744;4.900;2024-02-14T10:36:44;15.88;;;5.30;;
82938;SDS011;72714;52.744;4.900;2024-02-14T10:39:13;13.43;;;4.85;;
82938;SDS011;72714;52.744;4.900;2024-02-14T10:41:40;13.52;;;5.15;;
82938;SDS011;72714;52.744;4.900;2024-02-14T10:44:07;15.23;;;5.60;;
82938;SDS011;72714;52.744;4.900;2024-02-14T10:46:35;13.57;;;5.07;;
82938;SDS011;72714;52.744;4.900;2024-02-14T10:49:05;15.23;;;5.37;;
82938;SDS011;72714;52.744;4.900;2024-02-14T10:51:32;13.00;;;5.45;;
82938;SDS011;72714;52.744;4.900;2024-02-14T10:53:58;14.37;;;5.40;;
82938;SDS011;72714;52.744;4.900;2024-02-14T10:56:26;13.67;;;5.20;;
82938;SDS011;72714;52.744;4.900;2024-02-14T10:58:55;15.07;;;5.38;;
82938;SDS011;72714;52.744;4.900;2024-02-14T11:01:22;17.27;;;6.20;;
82938;SDS011;72714;52.744;4.900;2024-02-14T11:03:50;14.75;;;6.07;;
82938;SDS011;72714;52.744;4.900;2024-02-14T11:06:16;15.25;;;5.60;;
82938;SDS011;72714;52.744;4.900;2024-02-14T11:08:42;17.50;;;6.53;;
82938;SDS011;72714;52.744;4.900;2024-02-14T11:11:07;14.37;;;5.73;;
82938;SDS011;72714;52.744;4.900;2024-02-14T11:13:35;17.57;;;5.60;;
82938;SDS011;72714;52.744;4.900;2024-02-14T11:16:01;15.13;;;5.47;;
82938;SDS011;72714;52.744;4.900;2024-02-14T11:18:27;13.90;;;5.10;;
82938;SDS011;72714;52.744;4.900;2024-02-14T11:20:58;14.60;;;5.20;;
82938;SDS011;72714;52.744;4.900;2024-02-14T11:23:23;18.57;;;6.33;;
82938;SDS011;72714;52.744;4.900;2024-02-14T11:25:49;19.08;;;6.78;;
82938;SDS011;72714;52.744;4.900;2024-02-14T11:28:17;19.20;;;6.70;;
82938;SDS011;72714;52.744;4.900;2024-02-14T11:30:49;15.30;;;6.37;;
82938;SDS011;72714;52.744;4.900;2024-02-14T11:33:19;18.52;;;6.50;;
82938;SDS011;72714;52.744;4.900;2024-02-14T11:35:46;18.67;;;6.20;;
82938;SDS011;72714;52.744;4.900;2024-02-14T11:38:13;17.67;;;6.22;;
82938;SDS011;72714;52.744;4.900;2024-02-14T11:40:39;20.87;;;6.50;;
82938;SDS011;72714;52.744;4.900;2024-02-14T11:43:12;12.65;;;5.22;;
82938;SDS011;72714;52.744;4.900;2024-02-14T11:45:39;16.73;;;5.63;;
82938;SDS011;72714;52.744;4.900;2024-02-14T11:48:10;13.35;;;4.97;;
82938;SDS011;72714;52.744;4.900;2024-02-14T11:50:38;13.43;;;4.97;;
82938;SDS011;72714;52.744;4.900;2024-02-14T11:53:05;13.50;;;5.00;;
82938;SDS011;72714;52.744;4.900;2024-02-14T11:55:32;13.20;;;5.50;;
82938;SDS011;72714;52.744;4.900;2024-02-14T11:57:59;14.27;;;5.28;;
82938;SDS011;72714;52.744;4.900;2024-02-14T12:00:24;12.90;;;5.43;;
82938;SDS011;72714;52.744;4.900;2024-02-14T12:02:53;13.40;;;5.78;;
82938;SDS011;72714;52.744;4.900;2024-02-14T12:05:19;16.35;;;5.90;;
82938;SDS011;72714;52.744;4.900;2024-02-14T12:07:44;13.90;;;6.18;;
82938;SDS011;72714;52.744;4.900;2024-02-14T12:10:10;14.02;;;6.60;;
82938;SDS011;72714;52.744;4.900;2024-02-14T12:12:38;14.60;;;7.38;;
82938;SDS011;72714;52.744;4.900;2024-02-14T12:15:03;15.68;;;8.10;;
82938;SDS011;72714;52.744;4.900;2024-02-14T12:17:31;15.43;;;8.30;;
82938;SDS011;72714;52.744;4.900;2024-02-14T12:20:09;14.80;;;8.13;;
82938;SDS011;72714;52.744;4.900;2024-02-14T12:22:36;16.90;;;8.13;;
82938;SDS011;72714;52.744;4.900;2024-02-14T12:25:02;12.25;;;7.40;;
82938;SDS011;72714;52.744;4.900;2024-02-14T12:27:33;9.80;;;5.80;;
82938;SDS011;72714;52.744;4.900;2024-02-14T12:29:59;11.45;;;6.28;;
82938;SDS011;72714;52.744;4.900;2024-02-14T12:32:27;7.72;;;5.00;;
82938;SDS011;72714;52.744;4.900;2024-02-14T12:34:55;7.87;;;5.23;;
82938;SDS011;72714;52.744;4.900;2024-02-14T12:37:22;7.27;;;4.60;;
82938;SDS011;72714;52.744;4.900;2024-02-14T12:39:47;6.73;;;4.30;;
82938;SDS011;72714;52.744;4.900;2024-02-14T12:42:13;5.90;;;3.67;;
82938;SDS011;72714;52.744;4.900;2024-02-14T12:44:39;5.67;;;3.27;;
82938;SDS011;72714;52.744;4.900;2024-02-14T12:47:04;6.47;;;3.50;;
82938;SDS011;72714;52.744;4.900;2024-02-14T12:49:30;7.45;;;4.00;;
82938;SDS011;72714;52.744;4.900;2024-02-14T12:51:56;7.97;;;4.20;;
82938;SDS011;72714;52.744;4.900;2024-02-14T12:54:22;10.13;;;5.00;;
82938;SDS011;72714;52.744;4.900;2024-02-14T12:56:48;12.63;;;6.55;;
82938;SDS011;72714;52.744;4.900;2024-02-14T12:59:14;12.48;;;6.65;;
82938;SDS011;72714;52.744;4.900;2024-02-14T13:01:43;12.02;;;6.43;;
82938;SDS011;72714;52.744;4.900;2024-02-14T13:04:08;11.88;;;6.90;;
82938;SDS011;72714;52.744;4.900;2024-02-14T13:06:34;11.02;;;6.35;;
82938;SDS011;72714;52.744;4.900;2024-02-14T13:09:01;13.27;;;6.90;;
82938;SDS011;72714;52.744;4.900;2024-02-14T13:11:27;10.05;;;5.93;;
82938;SDS011;72714;52.744;4.900;2024-02-14T13:13:53;10.03;;;5.80;;
82938;SDS011;72714;52.744;4.900;2024-02-14T13:16:19;11.63;;;5.53;;
82938;SDS011;72714;52.744;4.900;2024-02-14T13:18:44;10.67;;;4.63;;
82938;SDS011;72714;52.744;4.900;2024-02-14T13:21:10;7.97;;;4.55;;
82938;SDS011;72714;52.744;4.900;2024-02-14T13:23:35;8.17;;;4.33;;
82938;SDS011;72714;52.744;4.900;2024-02-14T13:26:01;6.87;;;3.70;;
82938;SDS011;72714;52.744;4.900;2024-02-14T13:28:28;9.85;;;4.20;;
82938;SDS011;72714;52.744;4.900;2024-02-14T13:30:54;9.35;;;3.70;;
82938;SDS011;72714;52.744;4.900;2024-02-14T13:33:20;6.67;;;3.40;;
82938;SDS011;72714;52.744;4.900;2024-02-14T13:35:45;7.00;;;3.20;;
82938;SDS011;72714;52.744;4.900;2024-02-14T13:38:11;6.00;;;2.73;;
82938;SDS011;72714;52.744;4.900;2024-02-14T13:40:36;7.23;;;2.77;;
82938;SDS011;72714;52.744;4.900;2024-02-14T13:43:02;5.72;;;2.50;;
82938;SDS011;72714;52.744;4.900;2024-02-14T13:45:30;6.15;;;2.90;;
82938;SDS011;72714;52.744;4.900;2024-02-14T13:48:10;5.55;;;2.80;;
82938;SDS011;72714;52.744;4.900;2024-02-14T13:50:36;5.93;;;3.08;;
82938;SDS011;72714;52.744;4.900;2024-02-14T13:53:03;5.93;;;3.00;;
82938;SDS011;72714;52.744;4.900;2024-02-14T13:55:29;8.60;;;3.63;;
82938;SDS011;72714;52.744;4.900;2024-02-14T13:57:54;6.90;;;3.30;;
82938;SDS011;72714;52.744;4.900;2024-02-14T14:00:20;8.73;;;3.40;;
82938;SDS011;72714;52.744;4.900;2024-02-14T14:02:45;9.20;;;3.73;;
82938;SDS011;72714;52.744;4.900;2024-02-14T14:05:11;10.25;;;4.20;;
82938;SDS011;72714;52.744;4.900;2024-02-14T14:07:39;8.98;;;3.90;;
82938;SDS011;72714;52.744;4.900;2024-02-14T14:10:06;11.27;;;4.13;;
82938;SDS011;72714;52.744;4.900;2024-02-14T14:12:32;9.98;;;4.43;;
82938;SDS011;72714;52.744;4.900;2024-02-14T14:14:58;12.82;;;4.50;;
82938;SDS011;72714;52.744;4.900;2024-02-14T14:17:24;13.55;;;5.18;;
82938;SDS011;72714;52.744;4.900;2024-02-14T14:19:50;10.05;;;5.10;;
82938;SDS011;72714;52.744;4.900;2024-02-14T14:22:16;12.18;;;5.40;;
82938;SDS011;72714;52.744;4.900;2024-02-14T14:24:42;16.33;;;5.30;;
82938;SDS011;72714;52.744;4.900;2024-02-14T14:27:07;15.57;;;5.85;;
82938;SDS011;72714;52.744;4.900;2024-02-14T14:29:45;13.85;;;5.55;;
82938;SDS011;72714;52.744;4.900;2024-02-14T14:32:11;13.98;;;5.65;;